Time;durP1;ratioP1;P1;durP2;ratioP2;P2;SDS_P1;SDS_P2;PMS_P1;PMS_P2;Temp;Humidity;BMP_temperature;BMP_pressure;BME280_temperature;BME280_humidity;BME280_pressure;Samples;Min_cycle;Max_cycle;Signal;HPM_P1;HPM_P2
2023/04/08 00:00:19;;;;;;;24.23;14.03;;;10.70;99.90;;;;;;5053949;28;20476;-58
2023/04/08 00:02:46;;;;;;;14.97;13.20;;;10.70;99.90;;;;;;5053563;28;20921;-58
2023/04/08 00:05:14;;;;;;;20.50;13.67;;;10.70;99.90;;;;;;5053833;28;20509;-58
2023/04/08 00:07:41;;;;;;;17.00;13.20;;;10.70;99.90;;;;;;5053534;28;20461;-58
2023/04/08 00:10:09;;;;;;;19.07;13.40;;;10.70;99.90;;;;;;5053861;28;20449;-58
2023/04/08 00:12:35;;;;;;;19.30;13.87;;;10.70;99.90;;;;;;5053687;28;20445;-59
2023/04/08 00:15:02;;;;;;;21.13;14.37;;;10.80;99.90;;;;;;5053425;28;20871;-58
2023/04/08 00:17:29;;;;;;;16.90;14.20;;;10.70;99.90;;;;;;5053662;28;20454;-58
2023/04/08 00:19:55;;;;;;;20.93;15.90;;;10.70;99.90;;;;;;5053614;28;20453;-58
2023/04/08 00:22:23;;;;;;;16.03;12.27;;;10.70;99.90;;;;;;5053604;28;20452;-58
2023/04/08 00:24:50;;;;;;;22.10;14.20;;;10.70;99.90;;;;;;5053492;28;20496;-58
2023/04/08 00:27:17;;;;;;;18.43;14.83;;;10.70;99.90;;;;;;5053204;28;20469;-58
2023/04/08 00:29:44;;;;;;;22.37;15.00;;;10.80;99.90;;;;;;5053581;28;20858;-58
2023/04/08 00:32:10;;;;;;;24.70;14.27;;;10.80;99.90;;;;;;5053180;28;20982;-58
2023/04/08 00:34:37;;;;;;;24.17;17.47;;;10.80;99.90;;;;;;5053003;28;20858;-58
2023/04/08 00:37:04;;;;;;;23.23;16.47;;;10.80;99.90;;;;;;5053449;28;20499;-58
2023/04/08 00:39:32;;;;;;;19.47;16.33;;;10.80;99.90;;;;;;5053359;28;20454;-58
2023/04/08 00:42:00;;;;;;;29.27;18.00;;;10.80;99.90;;;;;;5053062;28;20468;-58
2023/04/08 00:44:27;;;;;;;22.20;16.57;;;10.80;99.90;;;;;;5053237;28;20465;-58
2023/04/08 00:46:54;;;;;;;30.80;18.47;;;10.80;99.90;;;;;;5053099;28;20472;-58
2023/04/08 00:49:21;;;;;;;24.20;17.37;;;10.80;99.90;;;;;;5053411;28;20502;-58
2023/04/08 00:51:47;;;;;;;31.23;18.30;;;10.80;99.90;;;;;;5053098;28;20449;-57
2023/04/08 00:54:14;;;;;;;23.03;16.70;;;10.80;99.90;;;;;;5053208;28;20489;-58
2023/04/08 00:56:44;;;;;;;24.17;17.67;;;10.80;99.90;;;;;;5053337;28;20449;-58
2023/04/08 00:59:11;;;;;;;24.60;17.20;;;10.70;99.90;;;;;;5053037;28;20944;-58
2023/04/08 01:01:43;;;;;;;34.50;19.50;;;10.70;99.90;;;;;;5053166;28;20508;-58
2023/04/08 01:04:21;;;;;;;26.40;18.10;;;10.70;99.90;;;;;;5053727;28;20501;-58
2023/04/08 01:06:52;;;;;;;28.83;18.40;;;10.70;99.90;;;;;;5053297;28;20433;-58
2023/04/08 01:09:23;;;;;;;30.50;18.33;;;10.70;99.90;;;;;;5053140;28;20442;-58
2023/04/08 01:11:53;;;;;;;27.90;18.80;;;10.70;99.90;;;;;;5052782;28;20943;-58
2023/04/08 01:14:26;;;;;;;28.10;18.47;;;10.70;99.90;;;;;;5052648;28;20488;-58
2023/04/08 01:16:56;;;;;;;26.33;18.40;;;10.60;99.90;;;;;;5053140;28;20524;-58
2023/04/08 01:19:29;;;;;;;28.47;18.80;;;10.60;99.90;;;;;;5053058;28;20449;-58
2023/04/08 01:22:03;;;;;;;29.23;19.70;;;10.60;99.90;;;;;;5053812;28;20437;-58
2023/04/08 01:24:33;;;;;;;34.03;18.40;;;10.60;99.90;;;;;;5052963;28;20469;-58
2023/04/08 01:27:02;;;;;;;31.50;19.77;;;10.60;99.90;;;;;;5053081;28;20856;-58
2023/04/08 01:29:30;;;;;;;33.90;19.90;;;10.60;99.90;;;;;;5052986;28;20446;-58
2023/04/08 01:31:58;;;;;;;30.20;18.83;;;10.60;99.90;;;;;;5052929;28;20458;-58
2023/04/08 01:34:25;;;;;;;31.20;20.77;;;10.60;99.90;;;;;;5052715;28;20489;-58
2023/04/08 01:36:53;;;;;;;28.50;19.60;;;10.50;99.90;;;;;;5052783;28;20453;-58
2023/04/08 01:39:21;;;;;;;28.03;20.20;;;10.60;99.90;;;;;;5052876;28;20507;-58
2023/04/08 01:41:50;;;;;;;27.17;19.77;;;10.50;99.90;;;;;;5052540;28;20489;-58
2023/04/08 01:44:19;;;;;;;27.70;21.17;;;10.60;99.90;;;;;;5052747;28;20511;-58
2023/04/08 01:46:47;;;;;;;29.50;21.70;;;10.60;99.90;;;;;;5052786;28;20452;-58
2023/04/08 01:49:15;;;;;;;28.77;19.20;;;10.50;99.90;;;;;;5053553;28;20453;-58
2023/04/08 01:51:44;;;;;;;36.77;21.40;;;10.50;99.90;;;;;;5052833;28;20445;-58
2023/04/08 01:54:11;;;;;;;29.87;20.37;;;10.50;99.90;;;;;;5052414;28;21133;-58
2023/04/08 01:56:41;;;;;;;27.17;20.17;;;10.60;99.90;;;;;;5052729;28;20452;-58
2023/04/08 01:59:13;;;;;;;31.23;20.37;;;10.50;99.90;;;;;;5056158;28;20465;-58
2023/04/08 02:01:42;;;;;;;36.80;20.67;;;10.50;99.90;;;;;;5056360;28;20791;-58
2023/04/08 02:04:09;;;;;;;27.23;20.63;;;10.50;99.90;;;;;;5055798;28;20982;-58
2023/04/08 02:06:37;;;;;;;32.70;21.10;;;10.50;99.90;;;;;;5056339;28;20449;-58
2023/04/08 02:09:04;;;;;;;28.40;20.57;;;10.50;99.90;;;;;;5056175;28;20453;-58
2023/04/08 02:11:31;;;;;;;27.43;19.97;;;10.50;99.90;;;;;;5055676;28;21066;-58
2023/04/08 02:13:58;;;;;;;33.80;21.50;;;10.50;99.90;;;;;;5056033;28;20858;-58
2023/04/08 02:16:30;;;;;;;29.10;22.10;;;10.50;99.90;;;;;;5056041;28;20488;-58
2023/04/08 02:19:06;;;;;;;35.77;21.00;;;10.50;99.90;;;;;;5056030;28;20491;-58
2023/04/08 02:21:39;;;;;;;29.30;20.10;;;10.50;99.90;;;;;;5055786;28;20955;-58
2023/04/08 02:24:09;;;;;;;34.47;21.60;;;10.50;99.90;;;;;;5055721;28;20466;-57
2023/04/08 02:26:38;;;;;;;26.37;21.57;;;10.40;99.90;;;;;;5055678;28;20448;-58
2023/04/08 02:29:05;;;;;;;34.33;22.00;;;10.40;99.90;;;;;;5055673;28;20450;-58
2023/04/08 02:31:33;;;;;;;33.50;22.57;;;10.30;99.90;;;;;;5055373;28;20878;-58
2023/04/08 02:34:02;;;;;;;30.67;22.63;;;10.30;99.90;;;;;;5055411;28;20512;-58
2023/04/08 02:36:31;;;;;;;27.77;21.10;;;10.30;99.90;;;;;;5055660;28;20449;-58
2023/04/08 02:38:57;;;;;;;32.23;22.97;;;10.30;99.90;;;;;;5055564;28;20450;-58
2023/04/08 02:41:28;;;;;;;32.07;22.07;;;10.30;99.90;;;;;;5055358;28;20457;-58
2023/04/08 02:43:55;;;;;;;34.67;21.17;;;10.30;99.90;;;;;;5055289;28;20484;-58
2023/04/08 02:46:21;;;;;;;27.27;20.80;;;10.30;99.90;;;;;;5055219;28;20852;-58
2023/04/08 02:48:48;;;;;;;33.80;21.57;;;10.20;99.90;;;;;;5055352;28;20445;-58
2023/04/08 02:51:16;;;;;;;24.53;21.03;;;10.30;99.90;;;;;;5055287;28;20556;-58
2023/04/08 02:53:43;;;;;;;29.53;21.17;;;10.30;99.90;;;;;;5054777;28;20848;-58
2023/04/08 02:56:10;;;;;;;29.40;21.53;;;10.30;99.90;;;;;;5055284;28;20476;-58
2023/04/08 02:58:37;;;;;;;29.10;21.10;;;10.30;99.90;;;;;;5055096;28;20441;-58
2023/04/08 03:01:04;;;;;;;26.17;21.37;;;10.30;99.90;;;;;;5055192;28;20446;-58
2023/04/08 03:03:31;;;;;;;28.07;21.03;;;10.30;99.90;;;;;;5054687;28;21021;-58
2023/04/08 03:05:58;;;;;;;29.10;20.87;;;10.30;99.90;;;;;;5054951;28;20449;-58
2023/04/08 03:08:26;;;;;;;25.17;21.50;;;10.30;99.90;;;;;;5054817;28;20453;-58
2023/04/08 03:10:52;;;;;;;27.20;21.47;;;10.30;99.90;;;;;;5054913;28;20511;-58
2023/04/08 03:13:19;;;;;;;27.63;20.33;;;10.30;99.90;;;;;;5054852;28;20465;-58
2023/04/08 03:15:46;;;;;;;28.90;20.73;;;10.30;99.90;;;;;;5055022;28;20446;-58
2023/04/08 03:18:13;;;;;;;26.53;20.77;;;10.30;99.90;;;;;;5054913;28;20446;-58
2023/04/08 03:20:40;;;;;;;23.97;19.90;;;10.20;99.90;;;;;;5054849;28;20441;-58
2023/04/08 03:23:06;;;;;;;28.60;20.23;;;10.20;99.90;;;;;;5054759;28;20488;-58
2023/04/08 03:25:35;;;;;;;29.67;19.80;;;10.20;99.90;;;;;;5054620;28;20978;-58
2023/04/08 03:28:01;;;;;;;29.73;22.07;;;10.20;99.90;;;;;;5054760;28;20442;-58
2023/04/08 03:30:28;;;;;;;26.27;19.97;;;10.20;99.90;;;;;;5054686;28;20460;-58
2023/04/08 03:32:54;;;;;;;25.63;20.33;;;10.20;99.90;;;;;;5054489;28;20437;-59
2023/04/08 03:35:21;;;;;;;26.57;23.00;;;10.20;99.90;;;;;;5054163;28;20900;-58
2023/04/08 03:37:48;;;;;;;28.00;22.00;;;10.20;99.90;;;;;;5054397;28;20527;-58
2023/04/08 03:40:15;;;;;;;29.90;22.13;;;10.20;99.90;;;;;;5054392;28;20457;-58
2023/04/08 03:42:43;;;;;;;27.50;21.03;;;10.20;99.90;;;;;;5054012;28;20480;-58
2023/04/08 03:45:10;;;;;;;30.07;23.40;;;10.20;99.90;;;;;;5054060;28;20473;-58
2023/04/08 03:47:36;;;;;;;28.97;21.03;;;10.20;99.90;;;;;;5054159;28;20456;-58
2023/04/08 03:50:03;;;;;;;30.00;22.73;;;10.30;99.90;;;;;;5054040;28;20461;-58
2023/04/08 03:52:30;;;;;;;30.70;21.80;;;10.30;99.90;;;;;;5054098;28;20454;-58
2023/04/08 03:54:57;;;;;;;31.60;21.17;;;10.30;99.90;;;;;;5053971;28;20481;-58
2023/04/08 03:57:23;;;;;;;30.10;22.47;;;10.30;99.90;;;;;;5054065;28;20457;-58
2023/04/08 03:59:51;;;;;;;27.53;22.10;;;10.40;99.90;;;;;;5053944;28;20457;-58
2023/04/08 04:02:18;;;;;;;35.43;24.17;;;10.40;99.90;;;;;;5054015;28;20504;-58
2023/04/08 04:04:45;;;;;;;31.03;23.80;;;10.40;99.90;;;;;;5053834;28;20496;-58
2023/04/08 04:07:11;;;;;;;32.17;23.77;;;10.40;99.90;;;;;;5053953;28;20457;-58
2023/04/08 04:09:38;;;;;;;34.73;25.17;;;10.40;99.90;;;;;;5053783;28;20445;-58
2023/04/08 04:12:05;;;;;;;34.53;24.93;;;10.40;99.90;;;;;;5053725;28;20478;-58
2023/04/08 04:14:32;;;;;;;33.90;23.60;;;10.50;99.90;;;;;;5053514;28;20489;-58
2023/04/08 04:17:00;;;;;;;34.87;24.60;;;10.50;99.90;;;;;;5053679;28;20452;-58
2023/04/08 04:19:30;;;;;;;33.03;23.37;;;10.50;99.90;;;;;;5053538;28;20445;-58
2023/04/08 04:21:57;;;;;;;39.80;24.80;;;10.50;99.90;;;;;;5053337;28;20845;-58
2023/04/08 04:24:23;;;;;;;35.70;24.70;;;10.50;99.90;;;;;;5053379;28;20547;-58
2023/04/08 04:26:50;;;;;;;44.93;23.30;;;10.50;99.90;;;;;;5054215;28;20454;-58
2023/04/08 04:29:17;;;;;;;47.33;26.83;;;10.50;99.90;;;;;;5053415;28;20449;-58
2023/04/08 04:31:43;;;;;;;38.80;25.40;;;10.40;99.90;;;;;;5053205;28;20826;-58
2023/04/08 04:34:11;;;;;;;38.50;25.80;;;10.40;99.90;;;;;;5053007;28;21028;-58
2023/04/08 04:36:38;;;;;;;38.77;26.90;;;10.40;99.90;;;;;;5053160;28;20955;-58
2023/04/08 04:39:05;;;;;;;35.57;25.40;;;10.40;99.90;;;;;;5053068;28;20818;-58
2023/04/08 04:41:31;;;;;;;39.83;26.70;;;10.40;99.90;;;;;;5053042;28;20461;-58
2023/04/08 04:43:58;;;;;;;39.23;26.53;;;10.40;99.90;;;;;;5053224;28;20465;-58
2023/04/08 04:46:25;;;;;;;36.73;25.97;;;10.40;99.90;;;;;;5053345;28;20453;-58
2023/04/08 04:48:51;;;;;;;40.87;27.10;;;10.40;99.90;;;;;;5053561;28;20549;-58
2023/04/08 04:51:20;;;;;;;41.97;26.60;;;10.40;99.90;;;;;;5052802;28;20947;-58
2023/04/08 04:53:48;;;;;;;44.43;27.17;;;10.40;99.90;;;;;;5053142;28;20466;-58
2023/04/08 04:56:14;;;;;;;43.57;26.40;;;10.40;99.90;;;;;;5053115;28;20469;-58
2023/04/08 04:58:41;;;;;;;43.67;27.83;;;10.50;99.90;;;;;;5053124;28;20503;-58
2023/04/08 05:01:08;;;;;;;39.07;27.17;;;10.50;99.90;;;;;;5052868;28;20954;-58
2023/04/08 05:03:35;;;;;;;36.30;24.57;;;10.50;99.90;;;;;;5053115;28;20476;-58
2023/04/08 05:06:01;;;;;;;45.10;30.63;;;10.50;99.90;;;;;;5053066;28;20866;-58
2023/04/08 05:08:30;;;;;;;44.53;28.90;;;10.60;99.90;;;;;;5053147;28;20446;-58
2023/04/08 05:10:58;;;;;;;40.27;26.47;;;10.60;99.90;;;;;;5053045;28;20472;-58
2023/04/08 05:13:25;;;;;;;50.30;27.97;;;10.60;99.90;;;;;;5052935;28;20497;-58
2023/04/08 05:15:51;;;;;;;42.70;28.03;;;10.60;99.90;;;;;;5053038;28;20568;-58
2023/04/08 05:18:18;;;;;;;43.50;28.50;;;10.60;99.90;;;;;;5054117;28;20464;-58
2023/04/08 05:20:45;;;;;;;42.63;28.27;;;10.70;99.90;;;;;;5052943;28;20449;-58
2023/04/08 05:23:12;;;;;;;51.23;31.37;;;10.70;99.90;;;;;;5052909;28;20534;-58
2023/04/08 05:25:40;;;;;;;50.63;29.30;;;10.70;99.90;;;;;;5052607;28;20818;-58
2023/04/08 05:28:07;;;;;;;45.63;28.97;;;10.70;99.90;;;;;;5052937;28;20446;-58
2023/04/08 05:30:34;;;;;;;44.57;31.13;;;10.70;99.90;;;;;;5052794;28;20445;-58
2023/04/08 05:33:01;;;;;;;55.17;31.27;;;10.70;99.90;;;;;;5056218;28;20548;-58
2023/04/08 05:35:27;;;;;;;43.77;29.63;;;10.60;99.90;;;;;;5056281;28;21018;-58
2023/04/08 05:37:54;;;;;;;45.63;31.97;;;10.70;99.90;;;;;;5056653;28;20445;-58
2023/04/08 05:40:21;;;;;;;42.50;28.60;;;10.70;99.90;;;;;;5056611;28;20454;-58
2023/04/08 05:42:49;;;;;;;49.03;31.53;;;10.70;99.90;;;;;;5056208;28;20457;-58
2023/04/08 05:45:16;;;;;;;50.57;32.73;;;10.70;99.90;;;;;;5056403;28;20536;-58
2023/04/08 05:47:42;;;;;;;48.70;31.90;;;10.70;99.90;;;;;;5056435;28;20449;-58
2023/04/08 05:50:11;;;;;;;57.67;34.23;;;10.70;99.90;;;;;;5056378;28;20452;-58
2023/04/08 05:52:37;;;;;;;48.60;32.50;;;10.70;99.90;;;;;;5056133;28;21010;-58
2023/04/08 05:55:06;;;;;;;51.40;31.83;;;10.80;99.90;;;;;;5056118;28;20489;-58
2023/04/08 05:57:32;;;;;;;50.47;34.57;;;10.80;99.90;;;;;;5055954;28;20457;-58
2023/04/08 06:00:00;;;;;;;47.50;33.50;;;10.80;99.90;;;;;;5055855;28;20951;-58
2023/04/08 06:02:27;;;;;;;48.20;32.07;;;10.90;99.90;;;;;;5056302;28;20453;-58
2023/04/08 06:04:54;;;;;;;49.23;33.70;;;10.90;99.90;;;;;;5056135;28;20463;-58
2023/04/08 06:07:20;;;;;;;52.13;33.40;;;10.90;99.90;;;;;;5056116;28;20453;-58
2023/04/08 06:09:47;;;;;;;49.33;32.53;;;10.90;99.90;;;;;;5055705;28;20808;-58
2023/04/08 06:12:14;;;;;;;56.23;35.00;;;10.90;99.90;;;;;;5055734;28;20943;-58
2023/04/08 06:14:41;;;;;;;47.83;35.20;;;11.00;99.90;;;;;;5055791;28;20488;-58
2023/04/08 06:17:09;;;;;;;52.67;34.23;;;11.00;99.90;;;;;;5056027;28;20445;-58
2023/04/08 06:19:35;;;;;;;44.77;33.33;;;11.00;99.90;;;;;;5055882;28;20536;-58
2023/04/08 06:22:02;;;;;;;46.50;32.50;;;11.10;99.90;;;;;;5055584;28;20940;-58
2023/04/08 06:24:29;;;;;;;46.77;34.20;;;11.10;99.90;;;;;;5055737;28;20492;-58
2023/04/08 06:26:56;;;;;;;49.20;34.50;;;11.20;99.90;;;;;;5055740;28;20452;-58
2023/04/08 06:29:23;;;;;;;51.97;34.30;;;11.20;99.90;;;;;;5055424;28;20936;-58
2023/04/08 06:31:50;;;;;;;50.60;34.20;;;11.30;99.90;;;;;;5055748;28;20442;-58
2023/04/08 06:34:18;;;;;;;43.60;31.90;;;11.30;99.90;;;;;;5055654;28;20822;-58
2023/04/08 06:36:45;;;;;;;46.00;31.97;;;11.40;99.90;;;;;;5055582;28;20485;-58
2023/04/08 06:39:11;;;;;;;48.70;33.37;;;11.40;99.90;;;;;;5055187;28;20943;-58
2023/04/08 06:41:38;;;;;;;51.63;36.30;;;11.40;99.90;;;;;;5055101;28;20466;-58
2023/04/08 06:44:05;;;;;;;47.67;33.30;;;11.50;99.90;;;;;;5054798;28;20473;-58
2023/04/08 06:46:32;;;;;;;50.27;33.07;;;11.50;99.90;;;;;;5055684;28;20449;-58
2023/04/08 06:48:58;;;;;;;51.50;34.53;;;11.50;99.90;;;;;;5055533;28;20496;-58
2023/04/08 06:51:27;;;;;;;47.90;34.57;;;11.60;99.90;;;;;;5055365;28;20817;-58
2023/04/08 06:53:53;;;;;;;47.40;33.30;;;11.60;99.90;;;;;;5055169;28;20472;-58
2023/04/08 06:56:21;;;;;;;49.27;34.47;;;11.70;99.90;;;;;;5054894;28;20504;-58
2023/04/08 06:58:48;;;;;;;49.33;35.37;;;11.80;99.90;;;;;;5055209;28;20499;-58
2023/04/08 07:01:16;;;;;;;48.53;33.70;;;11.80;99.90;;;;;;5055114;28;20453;-58
2023/04/08 07:03:42;;;;;;;48.67;32.90;;;11.90;99.90;;;;;;5055020;28;20492;-58
2023/04/08 07:06:09;;;;;;;49.57;34.17;;;11.90;99.90;;;;;;5055597;28;20449;-58
2023/04/08 07:08:37;;;;;;;56.60;38.60;;;12.00;99.90;;;;;;5055043;28;20449;-58
2023/04/08 07:11:05;;;;;;;55.50;37.70;;;12.10;99.90;;;;;;5054948;28;20483;-58
2023/04/08 07:13:32;;;;;;;50.93;34.63;;;12.20;99.90;;;;;;5054804;28;20477;-58
2023/04/08 07:15:59;;;;;;;52.03;35.57;;;12.30;99.90;;;;;;5054718;28;20481;-58
2023/04/08 07:18:25;;;;;;;50.30;34.63;;;12.30;99.90;;;;;;5054489;28;20935;-58
2023/04/08 07:20:53;;;;;;;55.67;40.00;;;12.50;99.90;;;;;;5054684;28;20457;-58
2023/04/08 07:23:20;;;;;;;60.20;39.47;;;12.60;99.90;;;;;;5054612;28;20516;-58
2023/04/08 07:25:48;;;;;;;63.27;42.17;;;12.70;99.90;;;;;;5054686;28;20460;-58
2023/04/08 07:28:15;;;;;;;59.47;40.80;;;12.70;99.90;;;;;;5054642;28;20481;-58
2023/04/08 07:30:42;;;;;;;63.57;41.63;;;12.80;99.90;;;;;;5054546;28;20480;-58
2023/04/08 07:33:08;;;;;;;59.07;39.70;;;12.80;99.90;;;;;;5054456;28;20442;-58
2023/04/08 07:35:35;;;;;;;61.90;41.00;;;12.80;99.90;;;;;;5054454;28;20477;-58
2023/04/08 07:38:02;;;;;;;62.60;40.20;;;12.90;99.90;;;;;;5054670;28;20449;-58
2023/04/08 07:40:29;;;;;;;48.97;36.30;;;12.90;99.90;;;;;;5054214;28;20966;-58
2023/04/08 07:42:57;;;;;;;54.20;36.43;;;12.90;99.90;;;;;;5053912;28;20460;-59
2023/04/08 07:45:23;;;;;;;52.07;34.40;;;13.10;99.90;;;;;;5054334;28;20469;-58
2023/04/08 07:47:50;;;;;;;54.43;35.83;;;13.30;99.90;;;;;;5054226;28;20450;-58
2023/04/08 07:50:17;;;;;;;52.60;37.37;;;13.40;99.70;;;;;;5054238;28;20449;-58
2023/04/08 07:52:44;;;;;;;54.90;35.87;;;13.50;98.90;;;;;;5053814;28;20936;-58
2023/04/08 07:55:10;;;;;;;50.33;34.03;;;13.60;98.60;;;;;;5053049;28;20485;-58
2023/04/08 07:57:37;;;;;;;56.47;37.30;;;13.70;97.80;;;;;;5054090;28;20445;-58
2023/04/08 08:00:07;;;;;;;54.50;37.07;;;13.80;97.60;;;;;;5053970;28;20461;-58
2023/04/08 08:02:34;;;;;;;57.30;37.27;;;13.90;97.40;;;;;;5053910;28;20449;-58
2023/04/08 08:05:02;;;;;;;53.83;37.83;;;13.90;96.70;;;;;;5053649;28;21041;-58
2023/04/08 08:07:29;;;;;;;55.80;37.40;;;14.00;96.20;;;;;;5054229;28;20461;-58
2023/04/08 08:09:56;;;;;;;54.57;37.87;;;14.00;96.10;;;;;;5053892;28;20446;-58
2023/04/08 08:12:22;;;;;;;55.00;39.43;;;14.10;95.90;;;;;;5053543;28;20939;-58
2023/04/08 08:14:49;;;;;;;54.10;37.00;;;14.20;95.10;;;;;;5053507;28;20461;-58
2023/04/08 08:17:18;;;;;;;52.47;37.87;;;14.30;95.30;;;;;;5053619;28;20477;-58
2023/04/08 08:19:45;;;;;;;50.43;37.23;;;14.40;95.30;;;;;;5053661;28;20453;-58
2023/04/08 08:22:11;;;;;;;49.33;36.00;;;14.40;94.60;;;;;;5053305;28;20843;-58
2023/04/08 08:24:38;;;;;;;54.13;38.77;;;14.40;94.80;;;;;;5053639;28;20466;-58
2023/04/08 08:27:05;;;;;;;53.00;39.50;;;14.40;94.70;;;;;;5053702;28;20441;-58
2023/04/08 08:29:32;;;;;;;54.47;40.17;;;14.30;94.60;;;;;;5053587;28;20456;-58
2023/04/08 08:31:59;;;;;;;52.70;38.97;;;14.30;94.40;;;;;;5053702;28;20532;-58
2023/04/08 08:34:27;;;;;;;50.97;38.47;;;14.30;95.00;;;;;;5053534;28;20477;-58
2023/04/08 08:36:53;;;;;;;53.73;38.83;;;14.30;95.30;;;;;;5053354;28;20568;-58
2023/04/08 08:39:20;;;;;;;54.13;39.73;;;14.30;95.50;;;;;;5053288;28;20948;-58
2023/04/08 08:41:47;;;;;;;51.77;38.00;;;14.50;95.40;;;;;;5053275;28;20461;-58
2023/04/08 08:44:14;;;;;;;46.97;35.63;;;14.60;95.20;;;;;;5053480;28;20480;-57
2023/04/08 08:46:44;;;;;;;49.70;35.97;;;14.70;95.00;;;;;;5053428;28;20817;-57
2023/04/08 08:49:11;;;;;;;52.57;37.60;;;14.90;94.90;;;;;;5053262;28;20457;-57
2023/04/08 08:51:40;;;;;;;45.50;35.30;;;15.00;94.40;;;;;;5053351;28;20448;-57
2023/04/08 08:54:07;;;;;;;50.83;38.33;;;15.00;94.10;;;;;;5053132;28;20472;-58
2023/04/08 08:56:34;;;;;;;46.13;36.50;;;15.00;94.50;;;;;;5053190;28;20509;-58
2023/04/08 08:59:01;;;;;;;47.00;38.17;;;15.20;95.00;;;;;;5052857;28;20801;-58
2023/04/08 09:01:32;;;;;;;44.87;34.40;;;15.40;94.50;;;;;;5052975;28;20459;-58
2023/04/08 09:04:10;;;;;;;47.90;38.17;;;15.60;94.20;;;;;;5053449;28;20979;-58
2023/04/08 09:06:39;;;;;;;45.53;36.33;;;15.80;93.90;;;;;;5054359;28;20453;-58
2023/04/08 09:09:09;;;;;;;46.47;36.17;;;16.00;93.80;;;;;;5057141;28;20441;-58
2023/04/08 09:11:36;;;;;;;43.30;35.13;;;16.10;93.20;;;;;;5056692;28;21025;-58
2023/04/08 09:14:02;;;;;;;44.80;34.67;;;16.00;92.50;;;;;;5057080;28;20473;-58
2023/04/08 09:16:31;;;;;;;43.30;34.47;;;16.10;92.10;;;;;;5057026;28;20564;-58
2023/04/08 09:19:09;;;;;;;45.80;35.87;;;16.10;92.20;;;;;;5057085;28;20453;-58
2023/04/08 09:21:35;;;;;;;49.00;37.87;;;16.20;92.00;;;;;;5057055;28;20461;-58
2023/04/08 09:24:04;;;;;;;45.53;36.60;;;16.30;91.70;;;;;;5056863;28;20473;-58
2023/04/08 09:26:30;;;;;;;47.87;36.83;;;16.40;91.60;;;;;;5057460;28;20442;-58
2023/04/08 09:29:00;;;;;;;46.70;37.97;;;16.50;91.50;;;;;;5056900;28;20524;-58
2023/04/08 09:31:28;;;;;;;48.53;39.67;;;16.60;91.20;;;;;;5056801;28;20449;-58
2023/04/08 09:33:56;;;;;;;46.50;37.33;;;16.70;90.70;;;;;;5056662;28;20491;-58
2023/04/08 09:36:25;;;;;;;43.33;36.03;;;16.80;90.70;;;;;;5056747;28;20481;-58
2023/04/08 09:38:54;;;;;;;42.53;35.20;;;16.90;90.30;;;;;;5056618;28;20456;-58
2023/04/08 09:41:23;;;;;;;40.83;33.90;;;17.00;90.10;;;;;;5056436;28;20956;-58
2023/04/08 09:43:51;;;;;;;42.30;35.30;;;17.10;88.20;;;;;;5056268;28;21045;-58
2023/04/08 09:46:25;;;;;;;37.57;32.57;;;17.20;87.80;;;;;;5056644;28;20504;-57
2023/04/08 09:49:00;;;;;;;35.60;31.50;;;17.00;87.60;;;;;;5057085;28;20481;-58
2023/04/08 09:51:32;;;;;;;34.87;30.67;;;17.00;88.90;;;;;;5056592;28;20425;-57
2023/04/08 09:54:02;;;;;;;36.60;31.50;;;17.00;89.20;;;;;;5056459;28;20461;-58
2023/04/08 09:56:37;;;;;;;35.00;30.27;;;16.90;88.70;;;;;;5056383;28;20465;-57
2023/04/08 09:59:11;;;;;;;30.43;26.83;;;16.80;88.30;;;;;;5056454;28;20437;-58
2023/04/08 10:01:39;;;;;;;31.20;27.80;;;16.70;89.30;;;;;;5056425;28;20433;-57
2023/04/08 10:04:12;;;;;;;26.70;23.90;;;16.70;89.10;;;;;;5056174;28;20508;-57
2023/04/08 10:06:41;;;;;;;29.00;25.67;;;16.70;89.90;;;;;;5056291;28;20434;-58
2023/04/08 10:09:09;;;;;;;24.00;21.50;;;16.70;90.00;;;;;;5056146;28;20449;-58
2023/04/08 10:11:37;;;;;;;23.90;21.37;;;16.70;89.20;;;;;;5055775;28;21050;-58
2023/04/08 10:14:04;;;;;;;23.33;20.93;;;16.60;89.70;;;;;;5056006;28;20546;-58
2023/04/08 10:16:30;;;;;;;24.50;21.90;;;16.60;90.30;;;;;;5055927;28;20482;-58
2023/04/08 10:18:57;;;;;;;23.20;20.90;;;16.50;90.30;;;;;;5054942;28;20453;-58
2023/04/08 10:21:37;;;;;;;23.00;20.80;;;16.60;90.40;;;;;;5055913;28;20476;-58
2023/04/08 10:24:08;;;;;;;21.80;19.53;;;16.60;90.40;;;;;;5055441;28;20462;-58
2023/04/08 10:26:39;;;;;;;20.97;18.97;;;16.60;90.30;;;;;;5055801;28;20445;-58
2023/04/08 10:29:42;;;;;;;21.53;19.43;;;16.70;89.90;;;;;;5055769;28;20434;-58
2023/04/08 10:32:27;;;;;;;20.73;18.53;;;16.70;89.20;;;;;;5055756;28;20482;-58
2023/04/08 10:34:54;;;;;;;20.43;18.43;;;16.80;88.70;;;;;;5055621;28;20510;-58
2023/04/08 10:37:20;;;;;;;20.73;18.77;;;17.00;87.50;;;;;;5055498;28;20551;-58
2023/04/08 10:39:50;;;;;;;22.43;17.93;;;17.10;87.60;;;;;;5055589;28;20446;-58
2023/04/08 10:42:18;;;;;;;18.80;16.90;;;17.20;85.50;;;;;;5055112;28;20515;-58
2023/04/08 10:44:46;;;;;;;21.93;19.63;;;17.40;85.20;;;;;;5055374;28;20473;-58
2023/04/08 10:47:13;;;;;;;20.67;18.67;;;17.50;84.50;;;;;;5055418;28;20454;-58
2023/04/08 10:49:40;;;;;;;21.43;19.30;;;17.50;82.20;;;;;;5055388;28;20449;-58
2023/04/08 10:52:08;;;;;;;20.97;19.00;;;17.50;82.60;;;;;;5055293;28;20859;-58
2023/04/08 10:54:36;;;;;;;21.53;19.27;;;17.40;83.10;;;;;;5055358;28;20560;-58
2023/04/08 10:57:03;;;;;;;21.47;19.27;;;17.30;82.40;;;;;;5055202;28;20489;-58
2023/04/08 10:59:32;;;;;;;20.90;18.90;;;17.20;82.60;;;;;;5055237;28;20457;-58
2023/04/08 11:01:59;;;;;;;25.83;22.60;;;17.10;83.60;;;;;;5054835;28;21009;-58
2023/04/08 11:04:26;;;;;;;21.50;19.30;;;17.10;83.90;;;;;;5054718;28;20990;-58
2023/04/08 11:06:53;;;;;;;20.60;18.60;;;17.10;83.80;;;;;;5055070;28;20445;-58
2023/04/08 11:09:20;;;;;;;22.70;20.43;;;17.10;83.80;;;;;;5054687;28;20446;-58
2023/04/08 11:11:47;;;;;;;22.97;20.63;;;17.20;83.70;;;;;;5054885;28;20461;-58
2023/04/08 11:14:16;;;;;;;23.70;21.30;;;17.20;83.60;;;;;;5054526;28;21011;-58
2023/04/08 11:16:44;;;;;;;23.53;21.33;;;17.30;83.30;;;;;;5054745;28;20893;-58
2023/04/08 11:19:14;;;;;;;21.93;19.67;;;17.30;82.40;;;;;;5054925;28;20489;-58
2023/04/08 11:21:41;;;;;;;23.97;21.13;;;17.30;82.80;;;;;;5054824;28;20867;-58
2023/04/08 11:24:11;;;;;;;23.23;21.03;;;17.40;82.40;;;;;;5054625;28;20469;-58
2023/04/08 11:26:38;;;;;;;23.47;21.17;;;17.40;81.80;;;;;;5054727;28;20896;-58
2023/04/08 11:29:06;;;;;;;23.73;21.27;;;17.40;79.90;;;;;;5054518;28;20449;-58
2023/04/08 11:31:33;;;;;;;22.77;20.43;;;17.40;79.10;;;;;;5054818;28;20499;-58
2023/04/08 11:34:01;;;;;;;23.37;21.00;;;17.40;79.00;;;;;;5054450;28;20477;-58
2023/04/08 11:36:29;;;;;;;21.90;19.60;;;17.40;79.40;;;;;;5054451;28;20488;-58
2023/04/08 11:38:55;;;;;;;23.77;21.30;;;17.30;80.10;;;;;;5054478;28;20445;-58
2023/04/08 11:41:22;;;;;;;23.10;20.73;;;17.30;78.90;;;;;;5054247;28;20457;-59
2023/04/08 11:43:56;;;;;;;24.13;21.73;;;17.30;79.80;;;;;;5054234;28;20469;-58
2023/04/08 11:46:23;;;;;;;25.37;22.47;;;17.40;79.90;;;;;;5055523;28;20448;-58
2023/04/08 11:49:02;;;;;;;22.10;19.93;;;17.70;80.10;;;;;;5055409;28;20445;-57
2023/04/08 11:51:29;;;;;;;23.77;21.47;;;18.00;78.20;;;;;;5055506;28;20958;-58
2023/04/08 11:53:55;;;;;;;23.30;21.00;;;18.30;76.00;;;;;;5055351;28;20473;-57
2023/04/08 11:56:23;;;;;;;24.77;22.40;;;18.60;74.80;;;;;;5054007;28;20566;-57
2023/04/08 11:58:51;;;;;;;23.50;21.30;;;18.70;73.40;;;;;;5053760;28;20935;-58
2023/04/08 12:01:17;;;;;;;23.10;20.90;;;18.70;70.40;;;;;;5054087;28;20456;-57
2023/04/08 12:04:01;;;;;;;23.63;18.03;;;18.80;70.80;;;;;;5053971;28;20495;-57
2023/04/08 12:06:30;;;;;;;19.13;17.33;;;19.00;67.60;;;;;;5053972;28;20484;-57
2023/04/08 12:08:57;;;;;;;20.07;18.17;;;19.30;65.60;;;;;;5053882;28;20457;-58
2023/04/08 12:11:24;;;;;;;19.80;18.00;;;19.50;63.50;;;;;;5053920;28;20445;-58
2023/04/08 12:13:51;;;;;;;20.93;18.83;;;19.70;60.60;;;;;;5053666;28;20481;-58
2023/04/08 12:16:19;;;;;;;27.77;20.23;;;19.90;61.30;;;;;;5053706;28;20445;-57
2023/04/08 12:18:46;;;;;;;20.80;18.90;;;19.90;59.90;;;;;;5053681;28;20460;-58
2023/04/08 12:21:14;;;;;;;19.30;17.50;;;19.80;58.60;;;;;;5053382;28;20963;-58
2023/04/08 12:23:41;;;;;;;20.33;18.33;;;19.70;58.70;;;;;;5053556;28;20523;-58
2023/04/08 12:26:08;;;;;;;17.87;16.27;;;19.60;59.30;;;;;;5053614;28;20452;-58
2023/04/08 12:28:35;;;;;;;18.73;16.93;;;19.60;60.20;;;;;;5053549;28;20451;-57
2023/04/08 12:31:02;;;;;;;20.57;18.53;;;19.70;60.50;;;;;;5053493;28;20457;-57